Time;durP1;ratioP1;P1;durP2;ratioP2;P2;SDS_P1;SDS_P2;PMS_P1;PMS_P2;Temp;Humidity;BMP_temperature;BMP_pressure;BME280_temperature;BME280_humidity;BME280_pressure;Samples;Min_cycle;Max_cycle;Signal;HPM_P1;HPM_P2
2022/07/30 00:06:39;;;;;;;2.40;1.63;;;;;;;18.93;85.32;101409.34;20921844;28;20067;-76
2022/07/30 00:16:41;;;;;;;1.80;1.55;;;;;;;19.09;85.39;101441.31;20917095;28;20075;-75
2022/07/30 00:26:43;;;;;;;2.70;2.05;;;;;;;19.09;85.01;101433.22;20916182;28;20071;-76
2022/07/30 00:36:44;;;;;;;1.70;1.52;;;;;;;19.08;85.51;101424.25;20914700;28;20139;-76
2022/07/30 00:46:46;;;;;;;1.95;1.48;;;;;;;19.08;85.12;101426.09;20919655;28;20405;-76
2022/07/30 00:56:49;;;;;;;2.00;1.52;;;;;;;19.07;85.11;101421.69;20920692;28;20716;-76
2022/07/30 01:06:50;;;;;;;2.00;1.55;;;;;;;19.06;85.05;101423.53;20904365;28;20040;-76
2022/07/30 01:16:52;;;;;;;2.08;1.73;;;;;;;18.91;85.17;101400.53;20911152;28;20044;-76
2022/07/30 01:26:54;;;;;;;3.35;1.95;;;;;;;19.05;84.98;101416.41;20906678;28;20059;-76
2022/07/30 01:36:57;;;;;;;2.13;1.50;;;;;;;19.05;84.93;101415.56;20886527;28;20420;-76
2022/07/30 01:47:00;;;;;;;1.90;1.70;;;;;;;18.98;84.86;101396.34;20899164;28;20345;-76
2022/07/30 01:57:03;;;;;;;1.48;1.38;;;;;;;19.04;84.71;101405.78;20875040;28;20049;-76
2022/07/30 02:07:10;;;;;;;2.25;1.67;;;;;;;19.02;84.77;101402.34;20897186;28;20563;-77
2022/07/30 02:17:17;;;;;;;2.88;1.80;;;;;;;18.89;84.84;101367.44;20899562;28;20130;-77
2022/07/30 02:27:27;;;;;;;2.10;1.63;;;;;;;19.02;84.70;101386.16;20897998;28;20080;-75
2022/07/30 02:37:29;;;;;;;1.70;1.40;;;;;;;19.01;84.52;101389.84;20893863;28;20167;-75
2022/07/30 02:47:48;;;;;;;2.25;1.77;;;;;;;19.00;84.68;101386.28;20893209;28;20049;-76
2022/07/30 02:57:51;;;;;;;1.50;1.40;;;;;;;18.91;84.11;101382.47;20914963;28;20052;-75
2022/07/30 03:07:55;;;;;;;1.95;1.60;;;;;;;18.94;84.25;101384.91;20910583;28;20570;-75
2022/07/30 03:17:58;;;;;;;2.45;1.80;;;;;;;18.98;84.02;101404.44;20916769;28;20049;-76
2022/07/30 03:28:02;;;;;;;1.83;1.50;;;;;;;18.97;83.84;101403.56;20906382;28;20497;-76
2022/07/30 03:38:04;;;;;;;1.90;1.63;;;;;;;18.86;83.50;101398.22;20917133;28;20049;-75
2022/07/30 03:48:08;;;;;;;2.65;1.45;;;;;;;18.92;83.53;101400.38;20919193;28;20106;-75
2022/07/30 03:58:12;;;;;;;1.90;1.70;;;;;;;18.96;83.22;101409.91;20921390;28;20056;-76
2022/07/30 04:08:14;;;;;;;2.22;1.77;;;;;;;18.95;83.14;101408.22;20924184;28;20045;-76
2022/07/30 04:18:18;;;;;;;2.13;1.75;;;;;;;18.95;83.14;101418.16;20923829;28;20570;-76
2022/07/30 04:28:19;;;;;;;1.90;1.67;;;;;;;18.94;83.05;101425.38;20907091;28;20048;-75
2022/07/30 04:38:21;;;;;;;2.50;1.65;;;;;;;18.94;82.91;101433.47;20899980;28;20059;-75
2022/07/30 04:48:27;;;;;;;1.60;1.50;;;;;;;18.94;82.87;101443.44;20912212;28;20574;-76
2022/07/30 04:58:42;;;;;;;2.40;1.35;;;;;;;18.87;82.86;101426.06;20902815;28;20049;-75
2022/07/30 05:08:45;;;;;;;1.40;1.30;;;;;;;18.93;82.54;101441.72;20897489;28;20417;-75
2022/07/30 05:18:46;;;;;;;2.17;1.60;;;;;;;18.92;82.43;101451.66;20889538;28;20671;-75
2022/07/30 05:28:48;;;;;;;1.60;1.50;;;;;;;18.92;82.52;101450.81;20938730;28;20052;-76
2022/07/30 05:39:01;;;;;;;1.67;1.58;;;;;;;18.73;82.59;101421.81;20910468;28;20047;-75
2022/07/30 05:49:31;;;;;;;2.00;1.70;;;;;;;18.92;82.62;101467.84;20908287;28;20502;-75
2022/07/30 05:59:45;;;;;;;1.98;1.60;;;;;;;18.92;82.87;101459.75;20911136;28;20063;-75
2022/07/30 06:10:16;;;;;;;1.63;1.50;;;;;;;18.82;82.67;101446.19;20933678;28;20083;-75
2022/07/30 06:20:19;;;;;;;1.65;1.45;;;;;;;18.93;82.96;101474.09;20923816;28;20044;-75
2022/07/30 06:30:44;;;;;;;1.92;1.50;;;;;;;18.93;83.15;101482.19;20899706;28;20052;-75
2022/07/30 06:40:46;;;;;;;1.50;1.40;;;;;;;18.93;83.21;101495.69;20911593;28;20062;-75
2022/07/30 06:50:51;;;;;;;1.63;1.30;;;;;;;18.93;83.69;101496.53;20904442;28;20133;-75
2022/07/30 07:00:53;;;;;;;1.40;1.30;;;;;;;18.94;84.03;101495.53;20893365;28;20045;-75
2022/07/30 07:10:57;;;;;;;1.80;1.50;;;;;;;18.94;84.37;101492.00;20913596;28;20037;-75
2022/07/30 07:21:03;;;;;;;1.40;1.30;;;;;;;18.80;84.70;101468.88;20925951;28;20098;-75
2022/07/30 07:31:06;;;;;;;1.55;1.45;;;;;;;18.84;84.73;101479.28;20924476;28;20104;-75
2022/07/30 07:41:09;;;;;;;1.45;1.33;;;;;;;18.98;85.20;101505.13;20919517;28;20052;-76
2022/07/30 07:51:10;;;;;;;2.72;1.73;;;;;;;19.01;86.02;101509.41;20914564;28;20110;-75
2022/07/30 08:01:12;;;;;;;2.38;2.00;;;;;;;18.96;87.71;101498.13;20913092;28;20048;-75
2022/07/30 08:11:32;;;;;;;5.90;1.90;;;;;;;18.99;89.34;101512.22;20911386;28;20056;-75
2022/07/30 08:22:00;;;;;;;1.70;1.40;;;;;;;19.11;89.59;101514.91;20918182;28;20048;-76
2022/07/30 08:32:04;;;;;;;3.15;1.70;;;;;;;19.16;89.66;101528.00;20915391;28;20040;-76
2022/07/30 08:42:12;;;;;;;5.35;2.20;;;;;;;19.19;92.29;101523.19;20891146;28;20063;-74
2022/07/30 08:52:14;;;;;;;4.57;2.30;;;;;;;19.31;94.39;101507.81;20910411;28;20051;-74
2022/07/30 09:02:23;;;;;;;4.82;2.42;;;;;;;19.41;94.58;101515.97;20934607;28;20051;-75
2022/07/30 09:12:42;;;;;;;2.78;2.25;;;;;;;19.46;94.05;101519.16;20926214;28;20048;-75
2022/07/30 09:22:48;;;;;;;4.15;2.05;;;;;;;19.51;93.37;101511.50;20924235;28;20071;-74
2022/07/30 09:33:08;;;;;;;2.00;1.80;;;;;;;19.55;92.55;101510.25;20938811;28;20040;-74
2022/07/30 09:43:50;;;;;;;3.20;1.90;;;;;;;19.58;92.36;101505.56;20907958;28;20048;-75
2022/07/30 09:54:12;;;;;;;2.35;1.60;;;;;;;19.60;91.45;101517.09;20898214;28;20458;-77
2022/07/30 10:04:23;;;;;;;2.70;1.80;;;;;;;19.35;90.91;101476.00;20887007;28;20059;-75
2022/07/30 10:14:36;;;;;;;2.03;1.45;;;;;;;19.58;90.82;101510.97;20879744;28;20064;-75
2022/07/30 10:24:46;;;;;;;2.38;1.70;;;;;;;19.56;90.90;101516.50;20883383;28;20048;-74
2022/07/30 10:35:08;;;;;;;2.17;1.60;;;;;;;19.46;91.02;101497.53;20920573;28;20136;-74
2022/07/30 10:45:32;;;;;;;2.00;1.58;;;;;;;19.52;91.01;101518.63;20914546;28;20055;-75
2022/07/30 10:55:34;;;;;;;3.53;2.08;;;;;;;19.51;90.98;101516.91;20916598;28;20070;-74
2022/07/30 11:05:40;;;;;;;2.35;1.70;;;;;;;19.52;91.03;101524.03;20906743;28;20048;-74
2022/07/30 11:15:57;;;;;;;1.77;1.38;;;;;;;19.36;90.92;101504.69;20910145;28;20053;-74
2022/07/30 11:25:58;;;;;;;1.50;1.40;;;;;;;19.52;90.41;101525.84;20908994;28;20159;-74
2022/07/30 11:36:07;;;;;;;2.47;1.33;;;;;;;19.52;90.26;101518.63;20902928;28;20061;-74
2022/07/30 11:46:12;;;;;;;3.17;1.63;;;;;;;19.53;90.19;101514.06;20893637;28;20053;-75
2022/07/30 11:56:17;;;;;;;2.15;1.58;;;;;;;19.52;89.64;101518.63;20895960;28;20087;-75
2022/07/30 12:06:19;;;;;;;2.65;1.80;;;;;;;19.39;89.69;101507.13;20863369;28;20106;-75
2022/07/30 12:16:20;;;;;;;2.10;1.42;;;;;;;19.48;89.94;101537.91;20881161;28;20052;-75
2022/07/30 12:26:24;;;;;;;3.03;1.60;;;;;;;19.45;89.80;101533.63;20886278;28;20497;-75
2022/07/30 12:36:29;;;;;;;1.92;1.50;;;;;;;19.43;89.50;101530.19;20889495;28;20416;-76
2022/07/30 12:46:37;;;;;;;2.30;1.27;;;;;;;19.42;89.12;101525.78;20890856;28;20053;-75
2022/07/30 12:56:39;;;;;;;2.55;1.80;;;;;;;19.40;89.09;101525.03;20896018;28;20048;-75
2022/07/30 13:06:42;;;;;;;1.90;1.50;;;;;;;19.38;88.64;101521.63;20887175;28;20044;-74
2022/07/30 13:16:44;;;;;;;1.85;1.60;;;;;;;19.38;88.04;101517.09;20879452;28;20075;-75
2022/07/30 13:26:45;;;;;;;1.70;1.20;;;;;;;19.19;87.73;101490.81;20874942;28;20126;-76
2022/07/30 13:36:47;;;;;;;2.40;1.63;;;;;;;19.37;87.52;101519.91;20880956;28;20049;-74
2022/07/30 13:46:49;;;;;;;2.35;1.60;;;;;;;19.37;87.11;101517.22;20881576;28;20072;-74
2022/07/30 13:56:50;;;;;;;2.25;1.67;;;;;;;19.36;86.73;101519.06;20904303;28;20057;-74
2022/07/30 14:06:52;;;;;;;2.47;1.63;;;;;;;19.34;86.36;101520.19;20915369;28;20932;-74
2022/07/30 14:16:54;;;;;;;2.28;1.70;;;;;;;19.37;85.73;101525.31;20915739;28;20396;-75
2022/07/30 14:26:55;;;;;;;1.90;1.35;;;;;;;19.35;85.60;101527.28;20895386;28;20062;-74
2022/07/30 14:36:59;;;;;;;3.78;1.35;;;;;;;19.31;85.38;101523.13;20897014;28;20052;-74
2022/07/30 14:47:01;;;;;;;2.45;1.50;;;;;;;19.33;85.21;101529.25;20911507;28;20072;-75
2022/07/30 14:57:03;;;;;;;2.20;1.38;;;;;;;19.33;85.11;101523.88;20906122;28;20056;-75
2022/07/30 15:07:05;;;;;;;2.30;1.35;;;;;;;19.34;85.13;101530.97;20911429;28;20052;-75
2022/07/30 15:17:07;;;;;;;1.40;1.27;;;;;;;19.34;85.06;101523.75;20884889;28;20068;-75
2022/07/30 15:27:09;;;;;;;2.55;1.50;;;;;;;19.34;85.13;101514.78;20893726;28;20124;-76
2022/07/30 15:37:10;;;;;;;2.00;1.10;;;;;;;19.33;84.80;101523.88;20873493;28;20437;-75
2022/07/30 15:47:12;;;;;;;1.60;1.20;;;;;;;19.32;84.94;101527.56;20886727;28;20420;-76
2022/07/30 15:57:13;;;;;;;2.08;1.35;;;;;;;19.26;84.75;101535.19;20881341;28;20044;-75
2022/07/30 16:07:15;;;;;;;2.03;1.30;;;;;;;19.32;84.53;101532.94;20903274;28;20074;-75
2022/07/30 16:17:17;;;;;;;1.48;1.25;;;;;;;19.31;84.43;101536.63;20895446;28;21018;-74
2022/07/30 16:27:18;;;;;;;3.65;1.40;;;;;;;19.28;84.48;101544.00;20887273;28;20072;-75
2022/07/30 16:37:20;;;;;;;2.08;1.50;;;;;;;19.27;84.34;101553.09;20898139;28;20064;-75
2022/07/30 16:47:22;;;;;;;2.78;1.45;;;;;;;19.28;84.66;101559.38;20881253;28;20062;-75
2022/07/30 16:57:23;;;;;;;2.40;1.70;;;;;;;19.26;84.67;101554.09;20913941;28;20107;-75
2022/07/30 17:07:25;;;;;;;3.08;1.50;;;;;;;19.27;84.42;101563.06;20916827;28;20409;-75
2022/07/30 17:17:28;;;;;;;2.35;1.33;;;;;;;19.27;84.51;101565.75;20915720;28;20094;-76
2022/07/30 17:27:32;;;;;;;2.90;1.58;;;;;;;19.08;84.33;101548.38;20900412;28;20122;-74
2022/07/30 17:37:33;;;;;;;1.88;1.30;;;;;;;19.17;85.19;101552.16;20913950;28;20062;-74
2022/07/30 17:47:35;;;;;;;3.95;1.98;;;;;;;19.27;85.94;101563.91;20897096;28;20145;-74
2022/07/30 17:57:37;;;;;;;4.88;1.63;;;;;;;19.26;85.85;101564.88;20920474;28;20041;-74
2022/07/30 18:07:38;;;;;;;2.60;1.50;;;;;;;19.20;85.91;101551.91;20904794;28;20397;-74
2022/07/30 18:17:40;;;;;;;1.63;1.42;;;;;;;19.24;85.52;101561.47;20932254;28;20145;-75
2022/07/30 18:27:41;;;;;;;2.33;1.63;;;;;;;19.23;85.37;101562.44;20918061;28;20159;-74
2022/07/30 18:37:43;;;;;;;1.90;1.20;;;;;;;19.23;85.57;101578.63;20894633;28;20048;-74
2022/07/30 18:47:45;;;;;;;1.63;1.27;;;;;;;19.23;85.43;101567.84;20934909;28;20053;-73
2022/07/30 18:57:47;;;;;;;2.03;1.17;;;;;;;19.22;85.52;101573.34;20932651;28;20060;-73
2022/07/30 19:07:52;;;;;;;3.78;1.42;;;;;;;19.21;85.59;101580.63;20931618;28;20457;-73
2022/07/30 19:17:59;;;;;;;3.70;1.33;;;;;;;19.20;85.72;101576.19;20932726;28;20452;-74
2022/07/30 19:28:02;;;;;;;2.63;1.60;;;;;;;19.19;85.53;101571.78;20944837;28;20130;-74
2022/07/30 19:38:04;;;;;;;2.17;1.52;;;;;;;19.11;85.73;101563.47;20967136;28;20055;-74
2022/07/30 19:48:08;;;;;;;1.27;1.00;;;;;;;19.16;85.72;101568.47;20968996;28;20110;-74
2022/07/30 19:58:16;;;;;;;;;;;;;;;19.20;85.90;101583.44;20966868;28;20049;-74
2022/07/30 20:08:17;;;;;;;2.08;1.40;;;;;;;19.19;86.00;101592.50;20994691;28;19920;-74
2022/07/30 20:18:25;;;;;;;2.67;1.25;;;;;;;19.18;86.02;101585.41;21049567;28;20056;-74
2022/07/30 20:28:29;;;;;;;1.60;1.20;;;;;;;19.15;86.12;101581.13;21049258;28;20086;-74
2022/07/30 20:38:32;;;;;;;1.42;1.27;;;;;;;19.14;86.16;101579.41;21046850;28;20040;-74
2022/07/30 20:48:37;;;;;;;1.55;1.17;;;;;;;19.18;85.96;101593.50;21045469;28;20496;-74
2022/07/30 20:58:38;;;;;;;2.40;1.20;;;;;;;19.17;86.38;101589.94;21044364;28;20122;-74
2022/07/30 21:08:41;;;;;;;1.05;1.00;;;;;;;19.17;86.25;101572.88;21035262;28;20516;-74
2022/07/30 21:18:43;;;;;;;1.80;1.17;;;;;;;19.16;86.21;101568.47;21044637;28;20447;-74
2022/07/30 21:28:50;;;;;;;1.80;1.30;;;;;;;19.16;86.44;101569.34;21044153;28;20048;-74
2022/07/30 21:38:52;;;;;;;1.95;1.30;;;;;;;19.16;86.52;101557.69;21044004;28;20044;-74
2022/07/30 21:48:54;;;;;;;1.35;1.20;;;;;;;19.16;86.66;101550.44;21041062;28;20496;-74
2022/07/30 21:59:00;;;;;;;5.38;1.60;;;;;;;19.15;86.81;101555.97;21025233;28;20071;-74
2022/07/30 22:09:03;;;;;;;2.00;1.23;;;;;;;19.16;87.05;101546.88;21026383;28;20043;-74
2022/07/30 22:19:20;;;;;;;1.15;1.00;;;;;;;19.15;87.17;101542.47;21051381;28;20122;-73
2022/07/30 22:29:22;;;;;;;1.90;1.35;;;;;;;19.07;87.25;101529.63;21058039;28;20054;-74
2022/07/30 22:39:23;;;;;;;2.15;1.20;;;;;;;19.14;87.03;101538.94;21057059;28;20060;-74
2022/07/30 22:49:45;;;;;;;2.50;1.30;;;;;;;19.14;87.48;101517.34;21055552;28;20086;-74
2022/07/30 22:59:57;;;;;;;1.70;1.17;;;;;;;19.01;87.44;101487.00;21041798;28;20044;-74
2022/07/30 23:10:02;;;;;;;1.20;1.10;;;;;;;19.14;87.54;101503.84;21047284;28;20052;-74
2022/07/30 23:20:19;;;;;;;2.53;1.30;;;;;;;19.12;87.67;101495.88;21055245;28;20127;-74
2022/07/30 23:30:21;;;;;;;1.30;1.20;;;;;;;19.12;87.68;101479.66;21051345;28;20136;-73
2022/07/30 23:40:23;;;;;;;1.67;1.20;;;;;;;19.13;87.54;101475.16;21052609;28;20036;-74
2022/07/30 23:50:24;;;;;;;1.40;1.15;;;;;;;19.03;87.68;101458.88;21052079;28;20064;-74
